WXM80 ListenWXM80 Stop

You find our weather info also at:

UK Metoffice

WeatherCloud

Weather Underground

Northeastern Weather Network

AWEKAS

Citizen Weather Observer Program (CWOP)

HAMweather, WeatherForYou, PWS Weather


Weather Underground History page Text

Daily Summary for July 23, 2017 Units:  Metric    English   Both
« Previous Day
Next Day »
Daily Weekly Monthly Yearly Custom
  High: Low: Average:
Temperature: 28.6 °C 21.4 °C 23.8 °C
Dew Point: 22.7 °C 18.8 °C 20.8 °C
Humidity: 95 % 69 % 83 %
Wind Speed: 6.3 km/h 0 km/h 1.3 km/h
Wind Gust: 14.8 km/h - -
Wind:- - ESE
Pressure: 1010.4 hPa 1004.6 hPa -
Precipitation: 2.03 mm    
Historical Graphs
 
 
Tabular Data for July 23, 2017
Time Temperature Dew Point Pressure Wind Wind Speed Wind Gust Humidity Rainfall Rate (Hourly)
00:01 23.6 °C 20.9 °C 1005.6 hPa Calm     85 % 0 mm
00:06 23.5 °C 20.8 °C 1005.6 hPa Calm     85 % 0 mm
00:11 23.4 °C 20.9 °C 1005.6 hPa Calm     86 % 0 mm
00:12 23.4 °C 20.9 °C 1005.6 hPa Calm     86 % 0 mm
00:17 23.4 °C 20.7 °C 1005.6 hPa Calm     85 % 0 mm
00:22 23.4 °C 20.8 °C 1005.3 hPa SE 0.5 km/h 5.6 km/h 85 % 0 mm
00:27 23.6 °C 20.7 °C 1005.3 hPa SE 1.3 km/h 3.7 km/h 84 % 0 mm
00:32 23.6 °C 20.7 °C 1005.3 hPa SE 1.4 km/h 5.6 km/h 84 % 0 mm
00:37 23.7 °C 20.8 °C 1005.3 hPa SE 0.2 km/h 1.9 km/h 84 % 0 mm
00:42 23.7 °C 20.8 °C 1005.3 hPa Calm   1.9 km/h 84 % 0 mm
00:47 23.7 °C 21 °C 1005.3 hPa Calm     85 % 0 mm
00:52 23.7 °C 21 °C 1005.3 hPa Calm     85 % 0 mm
00:57 23.7 °C 21 °C 1005.3 hPa Calm     85 % 0.25 mm
01:02 23.6 °C 21.1 °C 1005.3 hPa North 2.3 km/h 4.8 km/h 86 % 0.25 mm
01:07 23.6 °C 21.1 °C 1005 hPa Calm     86 % 0.25 mm
01:12 23.6 °C 21.1 °C 1005 hPa Calm     86 % 0.25 mm
01:17 23.6 °C 21.3 °C 1005 hPa Calm   1.9 km/h 87 % 0.51 mm
01:22 23.6 °C 21.4 °C 1005 hPa Calm     88 % 0.51 mm
01:27 23.5 °C 21.6 °C 1005 hPa Calm     89 % 0.76 mm
01:32 23.4 °C 21.5 °C 1005 hPa Calm     89 % 1.02 mm
01:37 23.4 °C 21.5 °C 1005.3 hPa Calm     89 % 1.27 mm
01:42 23.4 °C 21.7 °C 1005 hPa Calm     90 % 1.52 mm
01:47 23.3 °C 21.6 °C 1005 hPa Calm     90 % 1.52 mm
01:52 23.3 °C 21.6 °C 1005 hPa Calm     90 % 1.78 mm
01:57 23.3 °C 21.6 °C 1005 hPa Calm     90 % 1.52 mm
02:02 23.3 °C 21.7 °C 1005 hPa Calm     91 % 1.52 mm
02:07 23.3 °C 21.7 °C 1005 hPa North 0.2 km/h 1.9 km/h 91 % 1.52 mm
02:12 23.2 °C 21.7 °C 1004.6 hPa SSE 1.8 km/h 6.4 km/h 91 % 1.52 mm
02:17 23.1 °C 21.7 °C 1004.6 hPa SSE 1.1 km/h 5.6 km/h 92 % 1.27 mm
02:22 22.9 °C 21.3 °C 1004.6 hPa SE 0.8 km/h 3.7 km/h 91 % 1.27 mm
02:27 22.8 °C 21.2 °C 1004.6 hPa SE 0.8 km/h 3.7 km/h 91 % 1.02 mm
02:32 22.7 °C 20.9 °C 1004.6 hPa Calm   1.9 km/h 90 % 0.76 mm
02:37 22.5 °C 20.6 °C 1004.6 hPa SSE 2.9 km/h 7.4 km/h 89 % 0.76 mm
02:42 22.3 °C 20.4 °C 1004.6 hPa SE 2.6 km/h 5.6 km/h 89 % 0.51 mm
02:47 22.2 °C 20.4 °C 1004.6 hPa Calm     90 % 0.51 mm
02:52 22.1 °C 20.4 °C 1004.6 hPa Calm     90 % 0.25 mm
02:57 22.1 °C 20.3 °C 1004.6 hPa Calm     90 % 0.25 mm
03:02 22.1 °C 20.3 °C 1004.6 hPa Calm     90 % 0.25 mm
03:07 22 °C 20.3 °C 1004.6 hPa Calm     90 % 0.25 mm
03:12 21.9 °C 20.4 °C 1004.6 hPa Calm     91 % 0.25 mm
03:17 21.9 °C 20.4 °C 1004.6 hPa Calm     91 % 0.25 mm
03:20 21.9 °C 20.3 °C 1004.6 hPa Calm     91 % 0.25 mm
03:25 21.9 °C 20.3 °C 1004.6 hPa Calm     91 % 0.25 mm
03:30 21.8 °C 20.3 °C 1004.6 hPa Calm     91 % 0.25 mm
03:35 21.8 °C 20.3 °C 1004.6 hPa Calm     91 % 0 mm
03:40 21.8 °C 20.2 °C 1005 hPa Calm     91 % 0 mm
03:45 21.7 °C 20.2 °C 1004.6 hPa Calm     91 % 0 mm
03:50 21.7 °C 20.2 °C 1004.6 hPa Calm     91 % 0 mm
03:55 21.7 °C 20.2 °C 1004.6 hPa SE 0.2 km/h   91 % 0 mm
04:00 21.7 °C 20.1 °C 1005 hPa Calm     91 % 0 mm
04:06 21.7 °C 20.1 °C 1005 hPa Calm     91 % 0 mm
04:11 21.7 °C 20.1 °C 1005 hPa Calm     91 % 0 mm
04:16 21.6 °C 20.3 °C 1005 hPa Calm     92 % 0 mm
04:21 21.6 °C 20.3 °C 1005 hPa Calm     92 % 0 mm
04:27 21.6 °C 20.2 °C 1005.3 hPa Calm     92 % 0 mm
04:32 21.6 °C 20.2 °C 1005.3 hPa Calm     92 % 0 mm
04:37 21.6 °C 20.2 °C 1005.3 hPa Calm     92 % 0 mm
04:42 21.5 °C 20.2 °C 1005.3 hPa Calm     92 % 0 mm
04:47 21.5 °C 20.2 °C 1005.3 hPa Calm     92 % 0 mm
04:52 21.5 °C 20.2 °C 1005.3 hPa Calm     92 % 0 mm
04:57 21.5 °C 20.3 °C 1005.3 hPa Calm     93 % 0 mm
05:02 21.5 °C 20.3 °C 1005.6 hPa Calm     93 % 0 mm
05:07 21.5 °C 20.3 °C 1005.6 hPa Calm     93 % 0 mm
05:12 21.5 °C 20.3 °C 1005.6 hPa Calm     93 % 0 mm
05:17 21.5 °C 20.3 °C 1005.6 hPa Calm     93 % 0 mm
05:22 21.4 °C 20.3 °C 1005.6 hPa Calm     93 % 0 mm
05:27 21.4 °C 20.3 °C 1005.6 hPa Calm     93 % 0 mm
05:32 21.4 °C 20.3 °C 1005.6 hPa Calm     93 % 0 mm
05:37 21.4 °C 20.3 °C 1005.6 hPa Calm     93 % 0 mm
05:43 21.5 °C 20.3 °C 1005.6 hPa Calm     93 % 0 mm
05:48 21.5 °C 20.3 °C 1005.6 hPa Calm     93 % 0 mm
05:53 21.5 °C 20.3 °C 1005.6 hPa Calm     93 % 0 mm
05:58 21.5 °C 20.3 °C 1005.6 hPa Calm     93 % 0 mm
06:03 21.5 °C 20.5 °C 1006 hPa Calm     94 % 0 mm
06:08 21.5 °C 20.5 °C 1006 hPa Calm     94 % 0 mm
06:13 21.5 °C 20.5 °C 1006 hPa Calm     94 % 0 mm
06:18 21.5 °C 20.5 °C 1006 hPa Calm     94 % 0 mm
06:23 21.6 °C 20.6 °C 1006 hPa Calm     94 % 0 mm
06:28 21.6 °C 20.6 °C 1006 hPa Calm     94 % 0 mm
06:33 21.6 °C 20.6 °C 1006 hPa Calm     94 % 0 mm
06:38 21.6 °C 20.6 °C 1006 hPa Calm     94 % 0 mm
06:43 21.6 °C 20.6 °C 1006 hPa Calm     94 % 0 mm
06:48 21.6 °C 20.6 °C 1006 hPa Calm     94 % 0 mm
06:53 21.5 °C 20.5 °C 1006 hPa Calm     94 % 0 mm
06:57 21.5 °C 20.5 °C 1006 hPa Calm     94 % 0 mm
07:02 21.5 °C 20.5 °C 1006.3 hPa Calm     94 % 0 mm
07:07 21.5 °C 20.5 °C 1006 hPa Calm     94 % 0 mm
07:12 21.5 °C 20.5 °C 1006 hPa Calm     94 % 0 mm
07:17 21.6 °C 20.6 °C 1006 hPa Calm     94 % 0 mm
07:22 21.6 °C 20.6 °C 1006 hPa Calm     94 % 0 mm
07:27 21.7 °C 20.9 °C 1006.3 hPa Calm     95 % 0 mm
07:32 21.8 °C 20.9 °C 1006.3 hPa Calm     95 % 0 mm
07:37 21.8 °C 21 °C 1006.3 hPa Calm     95 % 0 mm
07:42 21.9 °C 21.1 °C 1006.3 hPa Calm     95 % 0 mm
07:47 22 °C 21.2 °C 1006.3 hPa Calm     95 % 0 mm
07:52 22.1 °C 21.2 °C 1006.3 hPa Calm     95 % 0 mm
07:57 22.2 °C 21.3 °C 1006.7 hPa Calm     95 % 0 mm
08:02 22.2 °C 21.4 °C 1006.7 hPa Calm     95 % 0 mm
08:07 22.3 °C 21.5 °C 1006.7 hPa SE 0.2 km/h 3.7 km/h 95 % 0 mm
08:12 22.4 °C 21.6 °C 1006.7 hPa SE 0.5 km/h 1.6 km/h 95 % 0 mm
08:17 22.5 °C 21.7 °C 1006.7 hPa Calm     95 % 0 mm
08:22 22.6 °C 21.8 °C 1006.7 hPa Calm     95 % 0 mm
08:27 22.7 °C 21.8 °C 1007 hPa Calm     95 % 0 mm
08:32 22.8 °C 21.9 °C 1007 hPa Calm     95 % 0 mm
08:37 22.8 °C 22 °C 1007 hPa Calm     95 % 0 mm
08:42 22.9 °C 21.9 °C 1007 hPa Calm     94 % 0 mm
08:48 23 °C 22 °C 1007 hPa Calm   1.9 km/h 94 % 0 mm
08:53 23.1 °C 22.1 °C 1007 hPa Calm     94 % 0 mm
08:58 23.2 °C 22.2 °C 1007 hPa SE 0.3 km/h 1.9 km/h 94 % 0 mm
09:02 23.2 °C 21.9 °C 1007 hPa Calm   1.6 km/h 93 % 0 mm
09:08 23.3 °C 21.9 °C 1007.3 hPa Calm     92 % 0 mm
09:13 23.3 °C 21.9 °C 1007.3 hPa Calm   1.9 km/h 92 % 0 mm
09:16 23.4 °C 22.1 °C 1007.3 hPa SE 0.8 km/h 1.9 km/h 92 % 0 mm
09:21 23.6 °C 22 °C 1007.3 hPa NNE 2.1 km/h 5.6 km/h 91 % 0 mm
09:26 23.7 °C 21.9 °C 1007 hPa NNE 1 km/h 5.6 km/h 90 % 0 mm
09:31 23.8 °C 21.7 °C 1007 hPa NNE 5.6 km/h 9.3 km/h 88 % 0 mm
09:36 23.8 °C 21.7 °C 1007.3 hPa ENE 3.9 km/h 5.6 km/h 88 % 0 mm
09:41 23.9 °C 21.7 °C 1007.3 hPa NNE 4 km/h 5.6 km/h 87 % 0 mm
09:46 24 °C 21.1 °C 1007.3 hPa NE 5.3 km/h 9.3 km/h 84 % 0 mm
09:51 24 °C 20.7 °C 1007.3 hPa NE 2.6 km/h 5.6 km/h 82 % 0 mm
09:56 24.1 °C 20.6 °C 1007.7 hPa NE 1.8 km/h 5.6 km/h 81 % 0 mm
10:01 24.1 °C 20.4 °C 1007.7 hPa ENE 3.9 km/h 11.3 km/h 80 % 0 mm
10:06 24.2 °C 20.5 °C 1007.3 hPa ENE 1.9 km/h 3.7 km/h 80 % 0 mm
10:11 24.3 °C 20.9 °C 1007.7 hPa ENE 2.1 km/h 4.8 km/h 81 % 0 mm
10:16 24.6 °C 20.9 °C 1007.7 hPa NE 2.3 km/h 5.6 km/h 80 % 0 mm
10:21 24.8 °C 20.7 °C 1007.7 hPa NE 3.9 km/h 7.4 km/h 78 % 0 mm
10:26 25.1 °C 21 °C 1007.7 hPa ENE 6.3 km/h 14.8 km/h 78 % 0 mm
10:31 25.4 °C 21.1 °C 1007.7 hPa ENE 3.4 km/h 11.1 km/h 77 % 0 mm
10:36 25.7 °C 21.2 °C 1007.7 hPa NE 3.1 km/h 7.4 km/h 76 % 0 mm
10:41 26.1 °C 21.6 °C 1007.7 hPa ENE 4 km/h 7.4 km/h 76 % 0 mm
10:46 26.5 °C 21.7 °C 1008 hPa NE 3.2 km/h 5.6 km/h 75 % 0 mm
10:51 26.9 °C 21.8 °C 1008 hPa ENE 2.4 km/h 5.6 km/h 74 % 0 mm
10:56 27.1 °C 21.6 °C 1008 hPa NE 6.1 km/h 6.1 km/h 72 % 0 mm
11:01 27 °C 21.7 °C 1008 hPa ENE 1.8 km/h 3.7 km/h 73 % 0 mm
11:06 27.2 °C 21.7 °C 1008 hPa ENE 4 km/h 9.3 km/h 72 % 0 mm
11:11 27.1 °C 21.1 °C 1008.4 hPa ENE 5.1 km/h 5.6 km/h 70 % 0 mm
11:16 27.2 °C 21.7 °C 1008 hPa NNE 5 km/h 7.4 km/h 72 % 0 mm
11:21 27.3 °C 21.6 °C 1008.4 hPa ENE 5 km/h 11.1 km/h 71 % 0 mm
11:27 27.5 °C 21.8 °C 1008.4 hPa NE 5.1 km/h 12.9 km/h 71 % 0 mm
11:32 27.6 °C 22.1 °C 1008.4 hPa ENE 2.4 km/h 5.6 km/h 72 % 0 mm
11:37 27.7 °C 21.9 °C 1008.4 hPa ENE 2.4 km/h 7.4 km/h 71 % 0 mm
11:42 27.8 °C 22.3 °C 1008.4 hPa NE 1.8 km/h 5.6 km/h 72 % 0 mm
11:47 28.2 °C 22.7 °C 1008 hPa ENE 3.1 km/h 5.6 km/h 72 % 0 mm
11:52 28.4 °C 22.7 °C 1008 hPa ENE 2.9 km/h 5.6 km/h 71 % 0 mm
11:57 28.6 °C 22.3 °C 1008 hPa ENE 3.1 km/h 5.6 km/h 69 % 0 mm
12:02 28.3 °C 22.1 °C 1008.4 hPa ENE 3.2 km/h 5.6 km/h 69 % 0 mm
12:07 28.1 °C 21.8 °C 1008.4 hPa ENE 5.5 km/h 7.4 km/h 69 % 0 mm
12:12 27.7 °C 21.7 °C 1008.4 hPa ENE 3.7 km/h 13 km/h 70 % 0 mm
12:17 27.5 °C 21.8 °C 1008.4 hPa ENE 4.3 km/h 7.4 km/h 71 % 0 mm
12:22 27.5 °C 21.8 °C 1008.4 hPa ENE 3.4 km/h 5.6 km/h 71 % 0 mm
12:27 27.5 °C 21.6 °C 1008.4 hPa NE 5.8 km/h 9.3 km/h 70 % 0 mm
12:32 27.3 °C 21.6 °C 1008.4 hPa ENE 4.5 km/h 7.4 km/h 71 % 0 mm
12:37 27.3 °C 21.8 °C 1008.4 hPa ENE 2.9 km/h 5.6 km/h 72 % 0 mm
12:42 27.2 °C 21.5 °C 1008.4 hPa ENE 5.6 km/h 13 km/h 71 % 0 mm
12:47 27.2 °C 21.4 °C 1008.4 hPa NE 5.1 km/h 6.4 km/h 71 % 0 mm
12:52 26.9 °C 21.2 °C 1008.4 hPa ENE 4.5 km/h 7.4 km/h 71 % 0 mm
12:57 26.8 °C 21.3 °C 1008.7 hPa ENE 4.2 km/h 7.4 km/h 72 % 0 mm
13:02 26.7 °C 21.7 °C 1008.7 hPa ENE 3.2 km/h 6.4 km/h 74 % 0 mm
13:07 26.5 °C 21.1 °C 1008.7 hPa ENE 4.5 km/h 9.3 km/h 72 % 0 mm
13:12 26.3 °C 21.3 °C 1008.7 hPa ENE 3.1 km/h 5.6 km/h 74 % 0 mm
13:17 26.1 °C 21.3 °C 1008.7 hPa ENE 3.1 km/h 5.6 km/h 75 % 0 mm
13:22 26.2 °C 21.2 °C 1008.7 hPa ENE 5 km/h 7.4 km/h 74 % 0 mm
13:27 26.2 °C 21 °C 1008.7 hPa ENE 4.5 km/h 7.4 km/h 73 % 0 mm
13:29 26.3 °C 21.5 °C 1008.7 hPa ENE 4.3 km/h 9.3 km/h 75 % 0 mm
13:34 26.3 °C 21.5 °C 1008.7 hPa ENE 2.9 km/h 5.6 km/h 75 % 0 mm
13:39 26.6 °C 22.2 °C 1008.4 hPa NE 3.5 km/h 6.4 km/h 77 % 0 mm
13:44 26.8 °C 21.6 °C 1008.4 hPa ENE 3.4 km/h 5.6 km/h 73 % 0 mm
13:49 26.9 °C 21.8 °C 1008.4 hPa ENE 4.5 km/h 7.4 km/h 74 % 0 mm
13:54 26.9 °C 21.9 °C 1008.4 hPa ENE 4.2 km/h 5.6 km/h 74 % 0 mm
13:59 26.9 °C 22.1 °C 1008.4 hPa ENE 3.2 km/h 5.6 km/h 75 % 0 mm
14:04 26.8 °C 22 °C 1008.7 hPa ENE 3.2 km/h 5.6 km/h 75 % 0 mm
14:09 26.8 °C 22 °C 1008.7 hPa ENE 2.9 km/h 5.6 km/h 75 % 0 mm
14:14 26.6 °C 21.8 °C 1008.4 hPa ENE 3.4 km/h 5.6 km/h 75 % 0 mm
14:19 26.7 °C 22.3 °C 1008.4 hPa ENE 3.4 km/h 5.6 km/h 77 % 0 mm
14:24 26.9 °C 22.3 °C 1008.4 hPa East 3.7 km/h 5.6 km/h 76 % 0 mm
14:29 26.9 °C 22.1 °C 1008.4 hPa East 4.2 km/h 5.6 km/h 75 % 0 mm
14:34 26.7 °C 21.7 °C 1008.4 hPa East 3.5 km/h 5.6 km/h 74 % 0 mm
14:39 26.6 °C 21.6 °C 1008.4 hPa East 2.9 km/h 5.6 km/h 74 % 0 mm
14:44 26.3 °C 21.6 °C 1008.4 hPa East 3.4 km/h 7.4 km/h 75 % 0 mm
14:49 26.2 °C 21.6 °C 1008.4 hPa NE 3.7 km/h 5.6 km/h 76 % 0 mm
14:54 26.2 °C 21.6 °C 1008.4 hPa ENE 2.6 km/h 5.6 km/h 76 % 0 mm
14:59 26.2 °C 21.7 °C 1008.4 hPa East 1.9 km/h 3.7 km/h 76 % 0 mm
15:04 26.2 °C 21.4 °C 1008.4 hPa East 2.9 km/h 5.6 km/h 75 % 0 mm
15:09 26.1 °C 21.6 °C 1008.4 hPa East 2.3 km/h 3.7 km/h 76 % 0 mm
15:14 26.1 °C 21.7 °C 1008.4 hPa East 2.4 km/h 5.6 km/h 77 % 0 mm
15:19 25.8 °C 21.3 °C 1008 hPa ESE 2.4 km/h 3.7 km/h 76 % 0 mm
15:24 25.7 °C 21.2 °C 1008 hPa ESE 1.8 km/h 5.6 km/h 76 % 0 mm
15:29 25.6 °C 21.1 °C 1008.4 hPa ESE 2.1 km/h 3.7 km/h 76 % 0 mm
15:34 25.5 °C 20.9 °C 1008.4 hPa ESE 1.1 km/h 3.7 km/h 76 % 0 mm
15:39 25.4 °C 21.1 °C 1008.4 hPa ESE 0.6 km/h 1.9 km/h 77 % 0 mm
15:44 25.3 °C 20.9 °C 1008.4 hPa ESE 1 km/h 3.7 km/h 77 % 0 mm
15:49 25.2 °C 20.8 °C 1008.4 hPa ESE 0.5 km/h 1.9 km/h 77 % 0 mm
15:54 25.1 °C 20.9 °C 1008.4 hPa ESE 0.3 km/h 3.7 km/h 78 % 0 mm
15:59 25 °C 20.9 °C 1008.4 hPa ESE 0.3 km/h 1.9 km/h 78 % 0 mm
16:04 24.9 °C 20.8 °C 1008.4 hPa Calm   1.9 km/h 78 % 0 mm
16:10 24.9 °C 20.8 °C 1008.4 hPa Calm     78 % 0 mm
16:15 24.9 °C 20.8 °C 1008.4 hPa Calm     78 % 0 mm
16:20 24.9 °C 21 °C 1008.4 hPa Calm   1.9 km/h 79 % 0 mm
16:25 24.9 °C 21.2 °C 1008.4 hPa Calm   1.9 km/h 80 % 0 mm
16:30 24.9 °C 21.2 °C 1008.4 hPa Calm   1.9 km/h 80 % 0 mm
16:35 24.9 °C 21.3 °C 1008.4 hPa ESE 0.8 km/h 3.7 km/h 80 % 0 mm
16:40 25 °C 21.3 °C 1008.4 hPa Calm   1.9 km/h 80 % 0 mm
16:45 25.1 °C 21.6 °C 1008.4 hPa Calm   1.9 km/h 81 % 0 mm
16:50 25.2 °C 21.7 °C 1008.4 hPa ESE 0.6 km/h 3.2 km/h 81 % 0 mm
16:55 25.3 °C 21.8 °C 1008.4 hPa ESE 2.6 km/h 6.4 km/h 81 % 0 mm
17:00 25.3 °C 21.6 °C 1008.7 hPa Calm   1.9 km/h 80 % 0 mm
17:05 25.3 °C 21.4 °C 1008.7 hPa Calm     79 % 0 mm
17:10 25.4 °C 21.5 °C 1008.7 hPa Calm   1.9 km/h 79 % 0 mm
17:15 25.4 °C 21.3 °C 1008.7 hPa ESE 0.5 km/h 3.7 km/h 78 % 0 mm
17:20 25.4 °C 21.3 °C 1008.7 hPa Calm   3.7 km/h 78 % 0 mm
17:25 25.4 °C 21.5 °C 1008.7 hPa Calm     79 % 0 mm
17:30 25.3 °C 21 °C 1008.7 hPa ESE 1.4 km/h 5.6 km/h 77 % 0 mm
17:35 25.3 °C 21.2 °C 1008.7 hPa Calm     78 % 0 mm
17:41 25.3 °C 21.4 °C 1008.7 hPa Calm     79 % 0 mm
17:46 25.3 °C 21.4 °C 1008.7 hPa Calm     79 % 0 mm
17:51 25.2 °C 21.3 °C 1008.7 hPa Calm   1.6 km/h 79 % 0 mm
17:56 25.2 °C 21.1 °C 1008.7 hPa Calm   3.2 km/h 78 % 0 mm
18:01 25.1 °C 21 °C 1008.7 hPa ESE 0.5 km/h 1.9 km/h 78 % 0 mm
18:06 25.1 °C 20.5 °C 1008.7 hPa Calm   3.2 km/h 76 % 0 mm
18:11 25 °C 20.7 °C 1008.7 hPa Calm   1.6 km/h 77 % 0 mm
18:16 24.9 °C 20.6 °C 1008.7 hPa Calm   1.6 km/h 77 % 0 mm
18:18 24.9 °C 20.8 °C 1008.7 hPa SSE 0.5 km/h 1.9 km/h 78 % 0 mm
18:23 24.9 °C 20.6 °C 1008.7 hPa SSE 0.2 km/h 1.9 km/h 77 % 0 mm
18:28 24.8 °C 20.4 °C 1008.7 hPa SSE 0.2 km/h 1.9 km/h 77 % 0 mm
18:33 24.8 °C 20.4 °C 1008.7 hPa Calm   1.9 km/h 77 % 0 mm
18:38 24.7 °C 20.4 °C 1008.7 hPa Calm     77 % 0 mm
18:43 24.6 °C 20.3 °C 1009 hPa SSE 2.4 km/h 6.4 km/h 77 % 0 mm
18:48 24.6 °C 20.3 °C 1008.7 hPa SE 1.4 km/h 4.8 km/h 77 % 0 mm
18:53 24.5 °C 20.2 °C 1008.7 hPa SE 1.1 km/h 6.4 km/h 77 % 0 mm
18:58 24.4 °C 20.3 °C 1008.7 hPa Calm   1.9 km/h 78 % 0 mm
19:03 24.3 °C 20.1 °C 1008.7 hPa SE 2.9 km/h 5.6 km/h 77 % 0 mm
19:08 24.3 °C 20 °C 1008.7 hPa SE 3.4 km/h 11.3 km/h 77 % 0 mm
19:13 24.2 °C 19.9 °C 1008.7 hPa SE 0.5 km/h 3.2 km/h 77 % 0 mm
19:18 24.1 °C 19.8 °C 1008.7 hPa SE 1.1 km/h 5.6 km/h 77 % 0 mm
19:23 24 °C 19.7 °C 1009 hPa SE 1.1 km/h 9.3 km/h 77 % 0 mm
19:28 23.9 °C 19.6 °C 1008.7 hPa ESE 1 km/h 1.9 km/h 77 % 0 mm
19:33 23.8 °C 19.6 °C 1008.7 hPa SE 2.7 km/h 5.6 km/h 77 % 0 mm
19:38 23.7 °C 19.4 °C 1009 hPa SE 1.4 km/h 5.6 km/h 77 % 0 mm
19:43 23.7 °C 19.7 °C 1009 hPa SE 0.5 km/h 3.7 km/h 78 % 0 mm
19:48 23.6 °C 19.6 °C 1009 hPa SE 2.4 km/h 7.4 km/h 78 % 0 mm
19:53 23.6 °C 19.5 °C 1009 hPa Calm   1.9 km/h 78 % 0 mm
19:58 23.5 °C 19.4 °C 1009 hPa Calm   1.9 km/h 78 % 0 mm
20:04 23.4 °C 19.6 °C 1009 hPa Calm   1.9 km/h 79 % 0 mm
20:09 23.4 °C 19.6 °C 1009.4 hPa Calm   3.7 km/h 79 % 0 mm
20:14 23.3 °C 19.5 °C 1009.4 hPa SE 1.3 km/h 6.4 km/h 79 % 0 mm
20:19 23.2 °C 19.6 °C 1009.4 hPa SE 3.9 km/h 13 km/h 80 % 0 mm
20:24 23.2 °C 19.7 °C 1009.4 hPa SE 0.3 km/h 3.7 km/h 81 % 0 mm
20:29 23.1 °C 19.7 °C 1009.4 hPa Calm   1.6 km/h 81 % 0 mm
20:34 23.1 °C 19.6 °C 1009.4 hPa SE 3.5 km/h 7.4 km/h 81 % 0 mm
20:39 23 °C 19.8 °C 1009.7 hPa SE 1 km/h 3.7 km/h 82 % 0 mm
20:44 22.9 °C 19.7 °C 1009.7 hPa Calm   1.9 km/h 82 % 0 mm
20:49 22.9 °C 19.9 °C 1009.7 hPa Calm     83 % 0 mm
20:54 22.8 °C 19.8 °C 1009.4 hPa Calm   1.9 km/h 83 % 0 mm
20:59 22.8 °C 19.7 °C 1009.4 hPa SE 0.2 km/h 5.6 km/h 83 % 0 mm
21:04 22.7 °C 19.7 °C 1009.4 hPa SE 0.3 km/h 3.7 km/h 83 % 0 mm
21:09 22.7 °C 19.6 °C 1009.4 hPa SE 0.8 km/h 1.9 km/h 83 % 0 mm
21:14 22.7 °C 19.8 °C 1009.4 hPa Calm   1.9 km/h 84 % 0 mm
21:19 22.6 °C 19.8 °C 1009.7 hPa SE 0.6 km/h 3.7 km/h 84 % 0 mm
21:24 22.6 °C 19.7 °C 1009.7 hPa SE 0.3 km/h 1.9 km/h 84 % 0 mm
21:29 22.4 °C 19.6 °C 1010 hPa SE 0.5 km/h 7.4 km/h 84 % 0 mm
21:34 22.4 °C 19.6 °C 1010 hPa SE 0.3 km/h 3.7 km/h 84 % 0 mm
21:39 22.3 °C 19.5 °C 1010 hPa SE 0.8 km/h 3.7 km/h 84 % 0 mm
21:44 22.3 °C 19.4 °C 1010 hPa Calm     84 % 0 mm
21:49 22.3 °C 19.4 °C 1010 hPa Calm     84 % 0 mm
21:54 22.2 °C 19.4 °C 1010 hPa Calm   1.9 km/h 84 % 0 mm
21:59 22.2 °C 19.5 °C 1009.7 hPa SE 0.6 km/h 1.9 km/h 85 % 0 mm
22:04 22.1 °C 19.2 °C 1010 hPa SE 1 km/h 3.7 km/h 84 % 0 mm
22:09 22 °C 19.2 °C 1010 hPa SE 0.8 km/h 3.7 km/h 84 % 0 mm
22:14 21.9 °C 19.1 °C 1010 hPa SE 0.5 km/h 1.9 km/h 84 % 0 mm
22:19 21.9 °C 19.1 °C 1010 hPa SE 1 km/h 5.6 km/h 84 % 0 mm
22:24 21.8 °C 19 °C 1010 hPa SE 2.1 km/h 5.6 km/h 84 % 0 mm
22:29 21.8 °C 18.9 °C 1009.7 hPa SE 4.5 km/h 9.3 km/h 84 % 0 mm
22:34 21.8 °C 18.9 °C 1010 hPa SE 1.9 km/h 5.6 km/h 84 % 0 mm
22:39 21.7 °C 18.9 °C 1010 hPa SE 1 km/h 5.6 km/h 84 % 0 mm
22:44 21.7 °C 18.8 °C 1010 hPa Calm   1.9 km/h 84 % 0 mm
22:49 21.7 °C 18.8 °C 1009.7 hPa SE 0.6 km/h 5.6 km/h 84 % 0 mm
22:54 21.6 °C 18.8 °C 1009.7 hPa ESE 0.8 km/h 1.9 km/h 84 % 0 mm
22:59 21.6 °C 18.9 °C 1009.7 hPa SE 1.3 km/h 5.6 km/h 85 % 0 mm
23:04 21.6 °C 18.9 °C 1009.7 hPa SE 1.8 km/h 5.6 km/h 85 % 0 mm
23:09 21.5 °C 18.9 °C 1010 hPa SE 2.1 km/h 5.6 km/h 85 % 0 mm
23:14 21.5 °C 18.9 °C 1010 hPa SE 1.3 km/h 3.2 km/h 85 % 0 mm
23:19 21.5 °C 18.9 °C 1010 hPa SE 1.8 km/h 5.6 km/h 85 % 0 mm
23:24 21.4 °C 18.8 °C 1010 hPa SE 0.3 km/h 1.9 km/h 85 % 0 mm
23:29 21.5 °C 18.9 °C 1010 hPa Calm   3.7 km/h 85 % 0 mm
23:34 21.5 °C 18.9 °C 1010.4 hPa ESE 0.6 km/h 1.9 km/h 85 % 0 mm
23:40 21.4 °C 18.8 °C 1010.4 hPa Calm   3.7 km/h 85 % 0 mm
23:45 21.5 °C 19.1 °C 1010.4 hPa ESE 0.2 km/h 1.9 km/h 86 % 0 mm
23:50 21.5 °C 18.9 °C 1010.4 hPa ESE 0.8 km/h 5.6 km/h 85 % 0 mm
23:55 21.5 °C 19.1 °C 1010.4 hPa ESE 1.4 km/h 3.7 km/h 86 % 0 mm
Crab Meadow Weather
Compliments of Weather Underground - 3 mb

Script developed by  Jim McMurry - jmcmurry@mwt.net Adapted for the template by  Wim van der Kuil - Leuven-Template.eu

Astronomy: It takes Saturn exactly 29.46 years to travel once around the Sun.